Time;durP1;ratioP1;P1;durP2;ratioP2;P2;SDS_P1;SDS_P2;PMS_P1;PMS_P2;Temp;Humidity;BMP_temperature;BMP_pressure;BME280_temperature;BME280_humidity;BME280_pressure;Samples;Min_cycle;Max_cycle;Signal;HPM_P1;HPM_P2
2022/07/17 00:02:04;;;;;;;3.97;1.08;;;;;;;22.60;39.20;102682.66;5064834;28;20071;-60
2022/07/17 00:04:30;;;;;;;1.55;0.68;;;;;;;22.84;39.04;102722.75;5065306;28;20025;-60
2022/07/17 00:06:55;;;;;;;1.92;0.70;;;;;;;22.62;39.30;102688.75;5063572;28;20029;-60
2022/07/17 00:09:20;;;;;;;1.33;0.60;;;;;;;22.81;39.21;102714.94;5065194;28;20052;-60
2022/07/17 00:11:45;;;;;;;1.17;0.70;;;;;;;22.77;39.35;102724.38;5082198;28;20024;-60
2022/07/17 00:14:11;;;;;;;1.02;0.60;;;;;;;22.80;39.32;102726.75;5083916;28;20025;-60
2022/07/17 00:16:36;;;;;;;1.65;0.60;;;;;;;22.80;39.04;102721.34;5083210;28;20024;-60
2022/07/17 00:19:02;;;;;;;1.23;0.80;;;;;;;22.78;39.06;102715.22;5067239;28;20021;-61
2022/07/17 00:21:27;;;;;;;1.80;0.70;;;;;;;22.57;39.18;102677.50;5083428;28;20033;-61
2022/07/17 00:23:52;;;;;;;1.13;0.70;;;;;;;22.77;38.88;102721.66;5084956;28;20056;-61
2022/07/17 00:26:17;;;;;;;2.58;0.60;;;;;;;22.77;39.12;102720.78;5084603;28;20024;-61
2022/07/17 00:28:43;;;;;;;1.05;0.60;;;;;;;22.56;39.36;102691.22;5083534;28;20040;-60
2022/07/17 00:31:08;;;;;;;1.40;0.60;;;;;;;22.52;39.10;102681.69;5084051;28;20723;-61
2022/07/17 00:33:33;;;;;;;0.98;0.60;;;;;;;22.73;38.86;102719.41;5084948;28;20025;-61
2022/07/17 00:35:59;;;;;;;1.42;0.65;;;;;;;22.63;38.89;102708.59;5083267;28;20027;-61
2022/07/17 00:38:24;;;;;;;2.30;0.60;;;;;;;22.70;38.96;102726.81;5084728;28;20050;-60
2022/07/17 00:40:53;;;;;;;1.88;0.90;;;;;;;22.70;38.84;102729.53;5084491;28;20055;-60
2022/07/17 00:43:18;;;;;;;1.00;0.82;;;;;;;22.67;39.18;102727.09;5083578;28;20036;-60
2022/07/17 00:45:43;;;;;;;1.50;0.60;;;;;;;22.62;38.99;102723.16;5084546;28;20029;-60
2022/07/17 00:48:10;;;;;;;2.63;0.95;;;;;;;22.65;39.07;102722.84;5084253;28;20064;-60
2022/07/17 00:50:39;;;;;;;1.35;0.68;;;;;;;22.65;38.89;102721.00;5087459;28;20040;-60
2022/07/17 00:53:05;;;;;;;1.52;0.70;;;;;;;22.62;39.06;102709.59;5087262;28;20024;-60
2022/07/17 00:55:31;;;;;;;1.60;0.70;;;;;;;22.62;39.17;102706.88;5086758;28;20044;-60
2022/07/17 00:57:57;;;;;;;1.75;0.65;;;;;;;22.59;39.23;102697.19;5088394;28;20055;-60
2022/07/17 01:00:23;;;;;;;1.42;0.82;;;;;;;22.61;39.09;102699.75;5088185;28;20028;-60
2022/07/17 01:02:51;;;;;;;2.35;0.50;;;;;;;22.59;39.13;102697.19;5077403;28;20021;-60
2022/07/17 01:05:18;;;;;;;1.85;0.50;;;;;;;22.59;38.95;102701.75;5082591;28;20027;-60
2022/07/17 01:07:44;;;;;;;2.92;0.82;;;;;;;22.58;38.86;102697.34;5070753;28;20084;-60
2022/07/17 01:10:10;;;;;;;1.65;0.75;;;;;;;22.59;38.94;102693.63;5069759;28;20025;-61
2022/07/17 01:12:35;;;;;;;1.00;0.60;;;;;;;22.38;38.93;102666.75;5069840;28;20102;-61
2022/07/17 01:15:01;;;;;;;2.15;0.68;;;;;;;22.57;38.87;102695.63;5087907;28;20025;-61
2022/07/17 01:17:26;;;;;;;1.42;0.60;;;;;;;22.56;38.90;102705.63;5086166;28;20031;-61
2022/07/17 01:19:52;;;;;;;3.50;0.55;;;;;;;22.54;38.96;102695.94;5075204;28;20025;-60
2022/07/17 01:22:17;;;;;;;2.75;1.10;;;;;;;22.54;39.00;102696.78;5066413;28;20090;-60
2022/07/17 01:24:42;;;;;;;3.22;0.70;;;;;;;22.52;38.71;102703.38;5067554;28;20024;-61
2022/07/17 01:27:08;;;;;;;1.60;0.60;;;;;;;22.52;38.75;102708.78;5066381;28;20084;-60
2022/07/17 01:29:36;;;;;;;2.45;0.82;;;;;;;22.48;38.75;102707.38;5067640;28;20029;-60
2022/07/17 01:32:01;;;;;;;1.33;0.82;;;;;;;22.33;39.00;102683.44;5049177;28;20029;-60
2022/07/17 01:34:27;;;;;;;1.45;0.85;;;;;;;22.29;38.80;102673.91;5067636;28;20039;-60
2022/07/17 01:36:52;;;;;;;0.88;0.50;;;;;;;22.49;38.89;102700.94;5076999;28;20397;-60
2022/07/17 01:39:17;;;;;;;1.30;0.60;;;;;;;22.47;38.90;102692.94;5086136;28;20033;-60
2022/07/17 01:41:42;;;;;;;2.70;0.95;;;;;;;22.46;39.00;102702.09;5087062;28;20044;-60
2022/07/17 01:44:08;;;;;;;1.40;0.80;;;;;;;22.28;38.84;102674.06;5087582;28;20016;-61
2022/07/17 01:46:34;;;;;;;2.38;0.80;;;;;;;22.45;38.97;102712.09;5085134;28;20139;-61
2022/07/17 01:49:00;;;;;;;2.15;1.02;;;;;;;22.43;38.77;102711.41;5087399;28;20021;-61
2022/07/17 01:51:26;;;;;;;1.13;0.70;;;;;;;22.44;38.70;102715.81;5085951;28;20032;-61
2022/07/17 01:53:52;;;;;;;1.33;0.90;;;;;;;22.22;38.59;102675.53;5087291;28;20107;-61
2022/07/17 01:56:17;;;;;;;1.52;0.80;;;;;;;22.20;38.74;102678.38;5086725;28;20024;-61
2022/07/17 01:58:42;;;;;;;1.42;0.80;;;;;;;22.19;38.67;102678.53;5085907;28;20058;-60
2022/07/17 02:01:07;;;;;;;3.08;0.82;;;;;;;22.39;38.63;102709.97;5086221;28;20036;-60
2022/07/17 02:03:33;;;;;;;2.00;0.90;;;;;;;22.19;38.82;102667.69;5086062;28;20017;-60
2022/07/17 02:05:58;;;;;;;2.92;1.27;;;;;;;22.37;38.75;102705.69;5086922;28;20366;-61
2022/07/17 02:08:23;;;;;;;2.03;1.00;;;;;;;22.33;38.87;102698.88;5087028;28;20031;-61
2022/07/17 02:10:48;;;;;;;2.75;0.90;;;;;;;22.35;38.63;102702.28;5075637;28;20028;-61
2022/07/17 02:13:14;;;;;;;1.20;0.85;;;;;;;22.33;38.70;102707.84;5066647;28;20021;-61
2022/07/17 02:15:40;;;;;;;1.95;1.13;;;;;;;22.32;38.65;102714.28;5066290;28;20167;-60
2022/07/17 02:18:05;;;;;;;1.45;0.70;;;;;;;22.31;38.54;102707.16;5064863;28;20029;-60
2022/07/17 02:20:30;;;;;;;2.05;0.90;;;;;;;22.29;38.68;102703.72;5066371;28;20055;-60
2022/07/17 02:22:55;;;;;;;1.38;0.70;;;;;;;22.27;38.54;102699.47;5066405;28;20067;-61
2022/07/17 02:25:21;;;;;;;1.42;1.02;;;;;;;22.26;38.73;102711.28;5064968;28;20028;-61
2022/07/17 02:27:46;;;;;;;1.20;0.85;;;;;;;22.25;38.75;102713.16;5064910;28;20105;-61
2022/07/17 02:30:16;;;;;;;1.05;0.60;;;;;;;22.24;38.62;102703.31;5066305;28;20033;-61
2022/07/17 02:32:42;;;;;;;2.58;0.77;;;;;;;22.23;38.86;102714.31;5065796;28;20032;-61
2022/07/17 02:35:09;;;;;;;1.45;0.80;;;;;;;22.22;38.67;102710.75;5066519;28;20041;-61
2022/07/17 02:37:34;;;;;;;1.10;0.70;;;;;;;21.99;38.42;102672.25;5064944;28;20033;-61
2022/07/17 02:40:00;;;;;;;1.40;0.68;;;;;;;22.21;38.54;102715.28;5064936;28;20047;-61
2022/07/17 02:42:27;;;;;;;0.98;0.77;;;;;;;22.20;38.47;102718.16;5066025;28;20028;-61
2022/07/17 02:44:53;;;;;;;1.77;0.80;;;;;;;22.19;38.71;102719.16;5065018;28;20029;-61
2022/07/17 02:47:26;;;;;;;1.17;0.70;;;;;;;22.16;38.75;102712.16;5064385;28;20151;-62
2022/07/17 02:49:52;;;;;;;1.55;0.70;;;;;;;22.16;38.45;102717.59;5065916;28;20017;-61
2022/07/17 02:52:17;;;;;;;1.83;0.70;;;;;;;22.16;38.60;102719.44;5064686;28;20033;-60
2022/07/17 02:54:43;;;;;;;1.13;0.80;;;;;;;22.14;38.61;102716.03;5064842;28;20043;-60
2022/07/17 02:57:08;;;;;;;3.65;1.38;;;;;;;21.93;38.65;102689.97;5064581;28;20089;-60
2022/07/17 02:59:34;;;;;;;1.38;0.70;;;;;;;22.13;38.68;102720.63;5047997;28;20036;-60
2022/07/17 03:01:59;;;;;;;1.67;0.88;;;;;;;22.09;38.49;102730.00;5065096;28;20029;-60
2022/07/17 03:04:24;;;;;;;0.75;0.70;;;;;;;22.11;38.66;102729.84;5064719;28;20033;-60
2022/07/17 03:06:50;;;;;;;1.00;0.60;;;;;;;22.10;38.36;102728.13;5064073;28;20036;-60
2022/07/17 03:09:15;;;;;;;1.33;0.70;;;;;;;22.08;38.68;102727.41;5065846;28;20032;-60
2022/07/17 03:11:40;;;;;;;0.98;0.60;;;;;;;22.08;38.33;102713.88;5081320;28;20035;-59
2022/07/17 03:14:06;;;;;;;1.35;0.50;;;;;;;22.05;38.59;102709.63;5085636;28;20033;-61
2022/07/17 03:16:31;;;;;;;1.08;0.70;;;;;;;22.04;38.71;102717.88;5084860;28;20037;-61
2022/07/17 03:18:56;;;;;;;1.50;0.60;;;;;;;22.04;38.32;102726.00;5085756;28;20043;-60
2022/07/17 03:21:21;;;;;;;1.20;0.60;;;;;;;22.03;38.52;102718.88;5084192;28;20027;-60
2022/07/17 03:23:46;;;;;;;2.15;0.60;;;;;;;22.03;38.46;102716.16;5085528;28;20037;-60
2022/07/17 03:26:12;;;;;;;0.77;0.50;;;;;;;22.01;38.49;102715.47;5085204;28;20025;-60
2022/07/17 03:28:37;;;;;;;2.42;1.00;;;;;;;21.79;38.32;102681.41;5085559;28;20029;-61
2022/07/17 03:31:02;;;;;;;0.93;0.50;;;;;;;21.73;38.61;102663.91;5084079;28;20103;-61
2022/07/17 03:33:28;;;;;;;1.08;0.73;;;;;;;21.77;38.32;102673.47;5083709;28;20774;-62
2022/07/17 03:35:53;;;;;;;2.00;0.70;;;;;;;21.95;38.44;102703.34;5085156;28;20028;-62
2022/07/17 03:38:18;;;;;;;0.57;0.50;;;;;;;21.94;38.38;102693.53;5085366;28;20051;-61
2022/07/17 03:40:43;;;;;;;2.63;0.82;;;;;;;21.94;38.57;102699.78;5067216;28;20072;-61
2022/07/17 03:43:09;;;;;;;1.10;0.60;;;;;;;21.73;38.56;102661.22;5084003;28;20033;-61
2022/07/17 03:45:34;;;;;;;0.73;0.50;;;;;;;21.93;38.56;102697.25;5083806;28;20107;-61
2022/07/17 03:47:59;;;;;;;1.17;0.55;;;;;;;21.92;38.26;102698.25;5084570;28;20127;-61
2022/07/17 03:50:25;;;;;;;0.80;0.70;;;;;;;21.90;38.42;102706.50;5084274;28;20064;-61
2022/07/17 03:52:51;;;;;;;1.67;0.70;;;;;;;21.90;38.63;102708.34;5085154;28;20036;-61
2022/07/17 03:55:16;;;;;;;1.25;0.60;;;;;;;21.89;38.60;102707.50;5083960;28;20040;-61
2022/07/17 03:57:41;;;;;;;2.00;0.73;;;;;;;21.89;38.52;102726.47;5085073;28;20111;-60
2022/07/17 04:00:07;;;;;;;1.38;0.75;;;;;;;21.69;38.56;102703.94;5066899;28;20032;-60
2022/07/17 04:02:33;;;;;;;1.13;0.70;;;;;;;21.57;38.71;102678.03;5084601;28;20032;-60
2022/07/17 04:04:58;;;;;;;1.77;0.70;;;;;;;21.86;38.45;102742.13;5085231;28;20029;-60
2022/07/17 04:07:26;;;;;;;2.80;1.00;;;;;;;21.86;38.32;102747.56;5066706;28;20048;-61
2022/07/17 04:09:55;;;;;;;1.13;0.60;;;;;;;21.85;38.67;102749.41;5082259;28;20046;-60
2022/07/17 04:12:21;;;;;;;2.53;0.90;;;;;;;21.85;38.53;102749.41;5063361;28;20029;-61
2022/07/17 04:14:46;;;;;;;1.23;0.70;;;;;;;21.85;38.66;102745.84;5063395;28;20047;-61
2022/07/17 04:17:11;;;;;;;1.42;0.80;;;;;;;21.79;38.47;102730.16;5046589;28;20394;-61
2022/07/17 04:19:36;;;;;;;2.17;1.00;;;;;;;21.83;38.70;102729.72;5065011;28;20040;-61
2022/07/17 04:22:02;;;;;;;2.60;0.60;;;;;;;21.83;38.55;102737.00;5064778;28;20055;-61
2022/07/17 04:24:27;;;;;;;0.88;0.73;;;;;;;21.60;38.86;102715.66;5067521;28;20045;-61
2022/07/17 04:26:52;;;;;;;1.23;0.65;;;;;;;21.80;38.48;102761.69;5068647;28;20033;-61
2022/07/17 04:29:17;;;;;;;1.55;0.80;;;;;;;21.59;38.81;102724.78;5068920;28;20025;-60
2022/07/17 04:31:43;;;;;;;2.63;0.98;;;;;;;21.47;38.53;102723.19;5068129;28;20029;-60
2022/07/17 04:34:08;;;;;;;3.75;1.00;;;;;;;21.79;38.85;102750.00;5068719;28;20029;-61
2022/07/17 04:36:33;;;;;;;1.50;1.02;;;;;;;21.78;38.51;102744.69;5068289;28;20037;-60
2022/07/17 04:38:58;;;;;;;2.63;1.00;;;;;;;21.77;38.84;102743.84;5050880;28;20029;-61
2022/07/17 04:41:24;;;;;;;1.55;0.77;;;;;;;21.77;38.65;102748.41;5068520;28;20021;-61
2022/07/17 04:43:49;;;;;;;2.95;1.05;;;;;;;21.74;38.65;102749.53;5067041;28;20420;-61
2022/07/17 04:46:14;;;;;;;2.72;1.00;;;;;;;21.75;38.66;102764.81;5066662;28;20052;-61
2022/07/17 04:48:39;;;;;;;1.52;0.80;;;;;;;21.76;38.73;102769.22;5068281;28;20037;-61
2022/07/17 04:51:05;;;;;;;2.20;1.00;;;;;;;21.48;38.80;102724.91;5067064;28;20032;-61
2022/07/17 04:53:30;;;;;;;1.45;0.73;;;;;;;21.75;38.89;102758.53;5068250;28;20025;-61
2022/07/17 04:55:56;;;;;;;2.95;1.00;;;;;;;21.74;39.20;102757.66;5066880;28;20048;-61
2022/07/17 04:58:21;;;;;;;2.15;1.00;;;;;;;21.73;39.12;102760.53;5066943;28;20428;-61
2022/07/17 05:00:47;;;;;;;2.97;1.40;;;;;;;21.66;39.37;102752.09;5066604;28;20032;-61
2022/07/17 05:03:13;;;;;;;2.78;1.00;;;;;;;21.73;39.06;102761.38;5066275;28;20064;-61
2022/07/17 05:05:40;;;;;;;2.28;1.15;;;;;;;21.74;39.23;102759.53;5067293;28;20021;-61
2022/07/17 05:08:05;;;;;;;3.17;1.38;;;;;;;21.73;39.38;102749.69;5046039;28;20025;-61
2022/07/17 05:10:30;;;;;;;1.55;0.90;;;;;;;21.53;39.59;102724.47;5060385;28;20107;-61
2022/07/17 05:12:55;;;;;;;3.30;1.33;;;;;;;21.73;39.75;102755.13;5087690;28;20028;-60
2022/07/17 05:15:21;;;;;;;2.28;1.00;;;;;;;21.73;39.53;102747.00;5086374;28;20039;-60
2022/07/17 05:17:46;;;;;;;2.33;0.90;;;;;;;21.74;39.49;102745.97;5085689;28;20033;-61
2022/07/17 05:20:12;;;;;;;2.10;1.00;;;;;;;21.73;39.66;102741.56;5087978;28;20050;-61
2022/07/17 05:22:37;;;;;;;2.53;1.10;;;;;;;21.70;39.44;102742.69;5086500;28;20489;-61
2022/07/17 05:25:02;;;;;;;2.67;1.08;;;;;;;21.49;39.80;102702.25;5087807;28;20021;-61
2022/07/17 05:27:28;;;;;;;1.95;0.93;;;;;;;21.73;39.97;102736.16;5085992;28;20405;-61
2022/07/17 05:29:54;;;;;;;2.10;0.80;;;;;;;21.73;40.21;102742.44;5086444;28;20043;-61
2022/07/17 05:32:19;;;;;;;1.85;0.90;;;;;;;21.72;40.27;102735.31;5086984;28;20021;-61
2022/07/17 05:34:45;;;;;;;2.15;1.08;;;;;;;21.49;40.26;102704.94;5087000;28;20029;-61
2022/07/17 05:37:10;;;;;;;2.97;0.90;;;;;;;21.47;40.04;102706.97;5085767;28;20105;-61
2022/07/17 05:39:35;;;;;;;3.20;0.90;;;;;;;21.54;40.38;102724.34;5087375;28;20027;-61
2022/07/17 05:42:01;;;;;;;2.20;1.00;;;;;;;21.72;40.17;102759.69;5087140;28;20086;-61
2022/07/17 05:44:26;;;;;;;1.48;0.88;;;;;;;21.71;40.50;102761.53;5087230;28;20036;-61
2022/07/17 05:46:51;;;;;;;2.28;0.80;;;;;;;21.54;40.34;102729.75;5086099;28;20044;-60
2022/07/17 05:49:17;;;;;;;0.95;0.80;;;;;;;21.71;40.28;102753.41;5087301;28;20025;-61
2022/07/17 05:51:42;;;;;;;1.60;0.70;;;;;;;21.73;40.61;102745.13;5086848;28;20497;-61
2022/07/17 05:54:07;;;;;;;1.48;1.00;;;;;;;21.73;40.62;102739.72;5087359;28;20054;-60
2022/07/17 05:56:33;;;;;;;3.28;1.00;;;;;;;21.74;40.35;102736.00;5068683;28;20020;-60
2022/07/17 05:58:58;;;;;;;1.00;0.70;;;;;;;21.62;40.45;102716.38;5087108;28;20469;-60
2022/07/17 06:01:23;;;;;;;3.13;1.65;;;;;;;21.54;40.54;102691.03;5086358;28;20117;-60
2022/07/17 06:03:49;;;;;;;2.53;0.90;;;;;;;21.67;40.73;102726.78;5085614;28;20048;-60
2022/07/17 06:06:14;;;;;;;2.17;1.02;;;;;;;21.76;40.60;102747.56;5085397;28;20112;-60
2022/07/17 06:08:39;;;;;;;3.15;0.90;;;;;;;21.77;40.34;102748.41;5086830;28;20025;-61
2022/07/17 06:11:04;;;;;;;2.55;1.45;;;;;;;21.71;40.65;102741.72;5073692;28;20142;-61
2022/07/17 06:13:30;;;;;;;2.05;1.08;;;;;;;21.53;40.74;102711.78;5066494;28;20083;-60
2022/07/17 06:15:58;;;;;;;2.50;0.90;;;;;;;21.78;40.52;102747.41;5065406;28;20036;-60
2022/07/17 06:18:24;;;;;;;1.92;1.02;;;;;;;21.77;41.01;102740.28;5066062;28;20021;-60
2022/07/17 06:20:50;;;;;;;3.22;1.52;;;;;;;21.56;40.95;102708.81;5065356;28;20086;-61
2022/07/17 06:23:15;;;;;;;2.00;0.82;;;;;;;21.77;40.69;102751.13;5065204;28;20024;-60
2022/07/17 06:25:40;;;;;;;4.07;1.30;;;;;;;21.57;40.78;102731.31;5066450;28;20033;-60
2022/07/17 06:28:06;;;;;;;2.50;1.08;;;;;;;21.76;40.82;102754.84;5066134;28;20021;-61
2022/07/17 06:30:31;;;;;;;1.45;0.98;;;;;;;21.41;41.07;102713.81;5064856;28;20046;-60
2022/07/17 06:32:56;;;;;;;2.65;1.00;;;;;;;21.53;41.07;102730.72;5065721;28;20458;-60
2022/07/17 06:35:22;;;;;;;2.10;1.10;;;;;;;21.76;40.91;102765.66;5065324;28;20036;-60
2022/07/17 06:37:47;;;;;;;2.17;1.13;;;;;;;21.54;40.98;102737.88;5065968;28;20059;-61
2022/07/17 06:40:12;;;;;;;2.03;0.90;;;;;;;21.76;40.84;102771.94;5066017;28;20021;-61
2022/07/17 06:42:37;;;;;;;3.40;1.38;;;;;;;21.57;40.98;102744.84;5064454;28;20029;-61
2022/07/17 06:45:03;;;;;;;4.40;1.38;;;;;;;21.62;41.17;102748.84;5048272;28;20055;-61
2022/07/17 06:47:28;;;;;;;3.80;1.23;;;;;;;21.76;41.17;102768.38;5046040;28;20509;-61
2022/07/17 06:49:53;;;;;;;3.72;1.02;;;;;;;21.78;41.13;102772.63;5066207;28;20021;-61
2022/07/17 06:52:19;;;;;;;2.85;1.17;;;;;;;21.78;41.09;102775.34;5064713;28;20025;-61
2022/07/17 06:54:44;;;;;;;2.78;1.20;;;;;;;21.79;40.86;102773.47;5065793;28;20462;-61
2022/07/17 06:57:09;;;;;;;4.30;1.20;;;;;;;21.79;41.21;102785.19;5064387;28;20056;-61
2022/07/17 06:59:34;;;;;;;3.05;1.20;;;;;;;21.81;40.99;102780.47;5064111;28;20029;-60
2022/07/17 07:02:00;;;;;;;2.33;1.20;;;;;;;21.82;41.06;102781.31;5065400;28;20047;-61
2022/07/17 07:04:25;;;;;;;2.92;1.45;;;;;;;21.81;41.10;102787.75;5065823;28;20481;-60
2022/07/17 07:06:50;;;;;;;2.78;1.10;;;;;;;21.84;40.74;102793.75;5065264;28;20039;-61
2022/07/17 07:09:15;;;;;;;3.55;1.40;;;;;;;21.58;40.96;102760.97;5065721;28;20109;-60
2022/07/17 07:11:41;;;;;;;2.85;1.00;;;;;;;21.66;40.98;102766.53;5080718;28;20035;-61
2022/07/17 07:14:07;;;;;;;1.75;0.80;;;;;;;21.87;41.00;102789.88;5085842;28;20032;-60
2022/07/17 07:16:32;;;;;;;2.22;0.90;;;;;;;21.88;40.97;102772.66;5066875;28;20398;-61
2022/07/17 07:18:58;;;;;;;3.13;1.00;;;;;;;21.64;40.87;102748.69;5085441;28;20023;-60
2022/07/17 07:21:24;;;;;;;1.88;0.90;;;;;;;21.83;40.91;102764.94;5085571;28;20032;-61
2022/07/17 07:23:50;;;;;;;2.33;1.02;;;;;;;21.87;40.78;102774.47;5084003;28;20561;-61
2022/07/17 07:26:16;;;;;;;2.50;1.10;;;;;;;21.69;40.67;102741.84;5083923;28;20025;-61
2022/07/17 07:28:41;;;;;;;2.55;0.80;;;;;;;21.89;40.59;102782.47;5085210;28;20524;-61
2022/07/17 07:31:06;;;;;;;2.33;1.10;;;;;;;21.90;41.01;102784.19;5083943;28;20077;-61
2022/07/17 07:33:32;;;;;;;3.25;1.20;;;;;;;21.71;40.82;102752.56;5085107;28;20036;-61
2022/07/17 07:35:57;;;;;;;2.35;0.93;;;;;;;21.91;40.93;102789.44;5083833;28;20024;-61
2022/07/17 07:38:22;;;;;;;3.28;1.08;;;;;;;21.92;40.59;102791.19;5085380;28;20025;-61
2022/07/17 07:40:48;;;;;;;2.03;0.93;;;;;;;21.94;40.69;102785.59;5084064;28;20033;-61
2022/07/17 07:43:13;;;;;;;2.95;0.90;;;;;;;21.94;40.86;102793.72;5085284;28;20032;-61
2022/07/17 07:45:38;;;;;;;3.30;1.25;;;;;;;21.95;40.58;102812.53;5084743;28;20052;-61
2022/07/17 07:48:04;;;;;;;3.92;1.10;;;;;;;21.96;40.86;102806.16;5083545;28;20048;-61
2022/07/17 07:50:29;;;;;;;1.35;1.05;;;;;;;21.96;40.67;102805.25;5083637;28;20100;-61
2022/07/17 07:52:54;;;;;;;1.50;0.90;;;;;;;;;;5085191;28;20068;-60
2022/07/17 07:55:21;;;;;;;3.78;1.30;;;;;;;21.96;40.72;102807.97;5085131;28;20020;-61
2022/07/17 07:57:47;;;;;;;2.05;0.90;;;;;;;21.99;40.43;102804.13;5083824;28;20088;-61
2022/07/17 08:00:13;;;;;;;1.63;1.05;;;;;;;21.80;40.65;102767.94;5088055;28;20025;-60
2022/07/17 08:02:38;;;;;;;3.17;1.10;;;;;;;22.01;40.82;102813.00;5088777;28;20020;-61
2022/07/17 08:05:04;;;;;;;1.75;0.80;;;;;;;21.99;40.59;102791.44;5088177;28;20027;-61
2022/07/17 08:07:29;;;;;;;2.13;1.10;;;;;;;22.03;40.48;102797.44;5087515;28;20031;-61
2022/07/17 08:09:55;;;;;;;1.83;0.80;;;;;;;22.03;40.57;102795.56;5085962;28;20036;-61
2022/07/17 08:12:21;;;;;;;1.90;0.90;;;;;;;22.06;40.61;102786.31;5068687;28;20025;-61
2022/07/17 08:14:46;;;;;;;2.35;0.95;;;;;;;22.07;40.67;102796.16;5067589;28;20025;-61
2022/07/17 08:17:11;;;;;;;3.42;1.00;;;;;;;22.04;40.44;102783.72;5067192;28;20032;-61
2022/07/17 08:19:37;;;;;;;2.05;0.98;;;;;;;22.10;40.63;102793.16;5068679;28;20088;-61
2022/07/17 08:22:02;;;;;;;1.35;1.13;;;;;;;22.11;40.81;102787.59;5068737;28;20029;-61
2022/07/17 08:24:27;;;;;;;2.30;0.95;;;;;;;22.13;40.66;102795.59;5068717;28;20754;-61
2022/07/17 08:26:53;;;;;;;2.35;1.00;;;;;;;22.14;40.78;102795.47;5050405;28;20067;-61
2022/07/17 08:29:18;;;;;;;2.55;1.20;;;;;;;;;;5068901;28;20021;-60
2022/07/17 08:31:43;;;;;;;1.92;0.80;;;;;;;22.15;40.40;102796.31;5067960;28;20029;-60
2022/07/17 08:34:09;;;;;;;1.33;0.68;;;;;;;22.17;40.51;102795.19;5068360;28;20050;-60
2022/07/17 08:36:34;;;;;;;2.60;1.00;;;;;;;22.18;40.50;102796.03;5067163;28;20037;-60
2022/07/17 08:38:59;;;;;;;3.03;0.95;;;;;;;22.20;40.62;102785.91;5068301;28;20043;-60
2022/07/17 08:41:25;;;;;;;3.08;0.82;;;;;;;22.20;40.87;102789.44;5068273;28;20059;-60
2022/07/17 08:43:52;;;;;;;2.85;1.00;;;;;;;22.22;40.67;102786.63;5067102;28;20025;-60
2022/07/17 08:46:18;;;;;;;3.78;1.05;;;;;;;22.22;40.59;102789.31;5067791;28;20064;-60
2022/07/17 08:48:45;;;;;;;3.35;0.93;;;;;;;22.25;40.58;102789.00;5066617;28;20017;-60
2022/07/17 08:51:11;;;;;;;1.53;0.80;;;;;;;22.08;40.50;102762.63;5068112;28;20021;-61
2022/07/17 08:53:37;;;;;;;2.42;1.10;;;;;;;22.29;40.66;102781.44;5067059;28;20112;-60
2022/07/17 08:56:03;;;;;;;4.03;1.27;;;;;;;22.27;40.54;102775.34;5068101;28;20081;-61
2022/07/17 08:58:29;;;;;;;1.65;0.80;;;;;;;22.32;40.75;102778.47;5068127;28;20052;-61
2022/07/17 09:00:54;;;;;;;1.73;0.80;;;;;;;22.30;40.83;102772.31;5067960;28;20025;-61
2022/07/17 09:03:19;;;;;;;1.90;0.80;;;;;;;22.16;40.77;102743.84;5067749;28;20059;-61
2022/07/17 09:05:45;;;;;;;3.05;0.90;;;;;;;22.35;40.69;102779.03;5066495;28;20025;-61
2022/07/17 09:08:18;;;;;;;2.05;0.85;;;;;;;22.35;40.82;102776.31;5067693;28;20466;-60
2022/07/17 09:10:45;;;;;;;2.42;0.82;;;;;;;22.20;40.86;102753.38;5074078;28;20031;-61
2022/07/17 09:13:16;;;;;;;3.75;0.93;;;;;;;22.39;40.88;102791.28;5087680;28;20040;-61
2022/07/17 09:15:42;;;;;;;2.38;0.75;;;;;;;22.40;40.67;102786.72;5087772;28;20024;-60
2022/07/17 09:18:07;;;;;;;1.63;0.60;;;;;;;22.12;40.99;102739.66;5087261;28;20111;-61
2022/07/17 09:20:32;;;;;;;1.38;0.60;;;;;;;22.18;40.84;102750.81;5087907;28;20040;-61
2022/07/17 09:23:03;;;;;;;1.45;0.80;;;;;;;22.25;41.04;102758.34;5087661;28;20020;-61
2022/07/17 09:25:42;;;;;;;1.30;0.73;;;;;;;22.45;41.00;102793.41;5086371;28;20028;-61
2022/07/17 09:28:10;;;;;;;3.53;1.25;;;;;;;22.45;41.11;102787.97;5086253;28;20185;-60
2022/07/17 09:30:37;;;;;;;2.28;1.00;;;;;;;22.48;41.05;102786.00;5086122;28;20028;-61
2022/07/17 09:33:06;;;;;;;2.75;0.90;;;;;;;22.24;40.97;102748.53;5086885;28;20027;-61
2022/07/17 09:35:32;;;;;;;2.22;0.88;;;;;;;22.50;41.27;102786.69;5086301;28;20565;-61
2022/07/17 09:37:57;;;;;;;2.60;0.90;;;;;;;22.26;41.52;102746.50;5087196;28;20024;-61
2022/07/17 09:43:07;;;;;;;1.55;0.90;;;;;;;22.52;41.34;102782.00;5086151;28;20082;-61
2022/07/17 09:45:33;;;;;;;1.48;0.77;;;;;;;22.47;41.40;102787.81;5087040;28;20025;-61
2022/07/17 09:48:00;;;;;;;1.95;0.95;;;;;;;22.54;41.58;102777.25;5086495;28;20045;-61
2022/07/17 09:50:27;;;;;;;3.35;1.50;;;;;;;22.57;41.45;102790.53;5086232;28;20039;-61
2022/07/17 09:52:54;;;;;;;1.48;0.70;;;;;;;22.32;41.70;102741.38;5087474;28;20051;-60
2022/07/17 09:55:20;;;;;;;2.95;0.80;;;;;;;22.40;41.20;102749.63;5086093;28;20073;-60
2022/07/17 09:57:47;;;;;;;2.15;0.70;;;;;;;22.61;41.19;102781.94;5086785;28;20032;-61
2022/07/17 10:00:13;;;;;;;0.68;0.47;;;;;;;22.44;41.52;102752.91;5085976;28;20047;-61
2022/07/17 10:02:42;;;;;;;0.98;0.60;;;;;;;22.65;41.54;102782.50;5086228;28;20076;-59
2022/07/17 10:05:11;;;;;;;3.00;1.17;;;;;;;22.40;41.29;102736.06;5085761;28;20092;-60
2022/07/17 10:07:40;;;;;;;2.22;0.85;;;;;;;22.48;41.36;102753.47;5085074;28;20020;-61
2022/07/17 10:10:07;;;;;;;3.85;0.80;;;;;;;22.68;41.31;102785.78;5065511;28;20024;-60
2022/07/17 10:12:32;;;;;;;2.63;1.02;;;;;;;22.48;41.54;102757.03;5066380;28;20039;-60
2022/07/17 10:14:58;;;;;;;2.08;0.73;;;;;;;22.49;41.62;102756.00;5065529;28;20041;-60
2022/07/17 10:17:23;;;;;;;3.22;0.80;;;;;;;22.47;41.56;102758.00;5064526;28;20088;-61
2022/07/17 10:19:58;;;;;;;1.40;0.60;;;;;;;22.71;41.55;102796.31;5065152;28;20029;-61
2022/07/17 10:22:24;;;;;;;2.33;0.70;;;;;;;22.48;41.55;102753.47;5066245;28;20025;-60
2022/07/17 10:24:52;;;;;;;1.10;0.60;;;;;;;22.56;41.32;102764.44;5065432;28;20032;-61
2022/07/17 10:27:29;;;;;;;1.60;0.80;;;;;;;22.74;41.44;102784.31;5066170;28;20024;-60
2022/07/17 10:30:03;;;;;;;2.13;0.88;;;;;;;22.75;41.62;102791.44;5066597;28;20051;-60
2022/07/17 10:32:29;;;;;;;2.60;0.90;;;;;;;22.63;41.54;102768.22;5064092;28;20032;-61
2022/07/17 10:34:59;;;;;;;1.23;0.70;;;;;;;22.74;41.73;102784.31;5066656;28;20025;-61
2022/07/17 10:37:34;;;;;;;1.25;0.63;;;;;;;22.57;41.52;102753.41;5064703;28;20290;-61
2022/07/17 10:40:04;;;;;;;1.63;0.73;;;;;;;22.78;41.53;102785.75;5066374;28;20059;-60
2022/07/17 10:42:58;;;;;;;1.00;0.50;;;;;;;22.80;41.62;102786.44;5065749;28;20021;-60
2022/07/17 10:45:42;;;;;;;2.83;0.70;;;;;;;22.53;41.77;102741.16;5066232;28;20031;-60
2022/07/17 10:48:22;;;;;;;1.33;0.75;;;;;;;22.81;41.82;102779.13;5048553;28;20056;-60
2022/07/17 10:50:55;;;;;;;4.07;0.95;;;;;;;22.64;41.76;102757.25;5064663;28;20056;-60
2022/07/17 10:53:31;;;;;;;2.13;0.95;;;;;;;22.82;41.68;102775.44;5047824;28;20031;-60
2022/07/17 10:55:58;;;;;;;2.63;0.90;;;;;;;22.83;41.44;102775.28;5065931;28;20027;-60
2022/07/17 10:58:27;;;;;;;1.10;0.60;;;;;;;22.85;41.62;102777.84;5065827;28;20025;-60
2022/07/17 11:01:09;;;;;;;1.25;0.50;;;;;;;22.86;41.59;102777.72;5065851;28;20086;-60
2022/07/17 11:03:43;;;;;;;2.97;1.10;;;;;;;22.86;41.69;102774.16;5065520;28;20089;-61
2022/07/17 11:06:14;;;;;;;2.05;0.70;;;;;;;22.66;41.78;102747.09;5064597;28;20070;-60
2022/07/17 11:09:01;;;;;;;1.45;0.57;;;;;;;22.70;41.51;102743.09;5064530;28;20021;-60
2022/07/17 11:11:42;;;;;;;1.40;0.85;;;;;;;22.90;41.63;102776.44;5079741;28;20036;-60
2022/07/17 11:14:15;;;;;;;1.30;0.50;;;;;;;22.90;41.65;102773.72;5084432;28;20075;-60
2022/07/17 11:16:55;;;;;;;1.38;0.68;;;;;;;22.92;41.72;102768.13;5083722;28;20046;-59
2022/07/17 11:19:32;;;;;;;1.48;0.75;;;;;;;22.93;41.73;102773.41;5084380;28;20020;-60
2022/07/17 11:21:59;;;;;;;1.40;0.60;;;;;;;22.94;41.63;102772.44;5084153;28;20077;-60
2022/07/17 11:24:44;;;;;;;3.55;0.75;;;;;;;22.95;41.60;102768.69;5084426;28;20115;-60
2022/07/17 11:27:10;;;;;;;0.73;0.50;;;;;;;22.96;41.42;102769.56;5084981;28;20024;-60